createdAt,value
2022-12-05T00:01:49.113Z,4.33
2022-12-05T00:04:16.302Z,4.10
2022-12-05T00:06:43.935Z,3.80
2022-12-05T00:09:11.773Z,3.50
2022-12-05T00:11:40.431Z,3.77
2022-12-05T00:14:08.882Z,3.90
2022-12-05T00:16:37.121Z,4.00
2022-12-05T00:19:05.186Z,4.53
2022-12-05T00:21:33.647Z,4.20
2022-12-05T00:24:01.042Z,4.13
2022-12-05T00:26:28.544Z,4.00
2022-12-05T00:28:55.665Z,4.20
2022-12-05T00:31:23.750Z,3.80
2022-12-05T00:33:51.533Z,4.03
2022-12-05T00:36:20.319Z,4.57
2022-12-05T00:38:47.727Z,4.30
2022-12-05T00:41:16.482Z,4.10
2022-12-05T00:43:44.636Z,4.13
2022-12-05T00:46:13.416Z,3.90
2022-12-05T00:48:40.777Z,4.10
2022-12-05T00:51:09.316Z,4.40
2022-12-05T00:53:36.518Z,3.63
2022-12-05T00:56:04.861Z,4.03
2022-12-05T00:58:32.738Z,4.07
2022-12-05T01:01:06.541Z,3.80
2022-12-05T01:03:33.803Z,4.23
2022-12-05T01:06:01.155Z,4.10
2022-12-05T01:08:28.641Z,4.00
2022-12-05T01:10:56.766Z,4.00
2022-12-05T01:13:24.394Z,4.13
2022-12-05T01:15:51.608Z,3.90
2022-12-05T01:18:19.690Z,3.53
2022-12-05T01:20:48.745Z,4.20
2022-12-05T01:23:15.841Z,3.80
2022-12-05T01:25:43.886Z,4.00
2022-12-05T01:28:11.356Z,4.20
2022-12-05T01:30:42.495Z,3.97
2022-12-05T01:33:09.633Z,4.50
2022-12-05T01:35:37.497Z,4.03
2022-12-05T01:38:04.901Z,4.63
2022-12-05T01:40:32.320Z,4.10
2022-12-05T01:42:59.745Z,4.07
2022-12-05T01:45:37.641Z,3.93
2022-12-05T01:48:06.779Z,4.00
2022-12-05T01:50:34.457Z,3.90
2022-12-05T01:53:05.558Z,4.03
2022-12-05T01:55:32.675Z,4.30
2022-12-05T01:58:00.410Z,4.07
2022-12-05T02:00:27.485Z,4.07
2022-12-05T02:02:59.615Z,4.07
2022-12-05T02:05:31.239Z,4.43
2022-12-05T02:07:59.432Z,4.07
2022-12-05T02:10:27.151Z,3.93
2022-12-05T02:12:54.317Z,4.20
2022-12-05T02:15:42.873Z,4.20
2022-12-05T02:18:18.909Z,4.13
2022-12-05T02:20:48.790Z,3.90
2022-12-05T02:23:26.272Z,3.70
2022-12-05T02:25:53.413Z,3.80
2022-12-05T02:28:39.436Z,4.47
2022-12-05T02:31:13.282Z,4.30
2022-12-05T02:33:47.186Z,3.47
2022-12-05T02:36:23.547Z,3.80
2022-12-05T02:38:54.129Z,4.23
2022-12-05T02:41:40.014Z,4.20
2022-12-05T02:44:14.989Z,3.83
2022-12-05T02:46:44.608Z,3.83
2022-12-05T02:49:13.879Z,3.90
2022-12-05T02:51:46.252Z,4.40
2022-12-05T02:54:15.930Z,4.00
2022-12-05T02:56:45.475Z,4.10
2022-12-05T02:59:12.669Z,2.73
2022-12-05T03:01:39.985Z,3.90
2022-12-05T03:04:08.417Z,3.53
2022-12-05T03:06:40.701Z,4.30
2022-12-05T03:09:10.515Z,4.27
2022-12-05T03:11:45.854Z,4.23
2022-12-05T03:14:15.997Z,3.90
2022-12-05T03:16:48.205Z,3.80
2022-12-05T03:19:21.738Z,3.60
2022-12-05T03:22:09.052Z,4.20
2022-12-05T03:24:37.679Z,3.20
2022-12-05T03:27:04.737Z,4.20
2022-12-05T03:29:44.221Z,4.00
2022-12-05T03:32:20.346Z,3.30
2022-12-05T03:34:47.430Z,3.87
2022-12-05T03:37:17.392Z,4.10
2022-12-05T03:39:47.977Z,3.83
2022-12-05T03:42:17.804Z,4.10
2022-12-05T03:44:44.898Z,4.00
2022-12-05T03:47:18.326Z,3.60
2022-12-05T03:49:48.233Z,4.10
2022-12-05T03:52:18.098Z,4.00
2022-12-05T03:54:52.146Z,4.00
2022-12-05T03:57:23.726Z,3.47
2022-12-05T03:59:50.861Z,4.47
2022-12-05T04:02:25.005Z,4.00
2022-12-05T04:05:15.378Z,3.90
2022-12-05T04:07:43.887Z,3.90
2022-12-05T04:10:13.613Z,4.10
2022-12-05T04:12:41.649Z,4.10
2022-12-05T04:15:14.995Z,3.87
2022-12-05T04:17:57.131Z,4.37
2022-12-05T04:20:53.816Z,4.03
2022-12-05T04:23:21.291Z,3.90
2022-12-05T04:25:53.150Z,3.63
2022-12-05T04:28:21.939Z,4.17
2022-12-05T04:30:58.464Z,4.10
2022-12-05T04:33:25.570Z,3.60
2022-12-05T04:36:25.249Z,3.53
2022-12-05T04:38:54.586Z,3.87
2022-12-05T04:41:23.529Z,3.80
2022-12-05T04:43:51.322Z,3.90
2022-12-05T04:46:19.751Z,4.03
2022-12-05T04:48:50.991Z,4.10
2022-12-05T04:51:19.652Z,3.53
2022-12-05T04:53:47.421Z,4.33
2022-12-05T04:56:17.207Z,3.53
2022-12-05T04:58:44.328Z,3.63
2022-12-05T05:01:15.017Z,3.83
2022-12-05T05:03:51.882Z,3.63
2022-12-05T05:06:19.037Z,3.90
2022-12-05T05:08:50.564Z,4.07
2022-12-05T05:11:22.478Z,3.77
2022-12-05T05:13:49.673Z,3.20
2022-12-05T05:16:18.354Z,3.47
2022-12-05T05:18:49.430Z,3.67
2022-12-05T05:21:17.353Z,3.53
2022-12-05T05:23:44.434Z,3.70
2022-12-05T05:26:11.644Z,3.90
2022-12-05T05:28:38.809Z,3.63
2022-12-05T05:31:06.328Z,3.63
2022-12-05T05:33:33.960Z,3.33
2022-12-05T05:36:08.349Z,3.27
2022-12-05T05:38:39.233Z,3.77
2022-12-05T05:41:06.869Z,3.43
2022-12-05T05:43:33.982Z,3.60
2022-12-05T05:46:03.813Z,3.53
2022-12-05T05:48:31.111Z,3.53
2022-12-05T05:51:01.706Z,3.43
2022-12-05T05:53:28.943Z,3.70
2022-12-05T05:55:56.230Z,3.63
2022-12-05T05:58:23.325Z,3.80
2022-12-05T06:00:50.559Z,3.37
2022-12-05T06:03:17.761Z,3.97
2022-12-05T06:05:48.767Z,3.80
2022-12-05T06:08:20.131Z,3.50
2022-12-05T06:10:47.310Z,3.10
2022-12-05T06:13:14.442Z,3.40
2022-12-05T06:15:41.516Z,3.70
2022-12-05T06:18:08.638Z,3.40
2022-12-05T06:20:35.799Z,3.60
2022-12-05T06:23:02.989Z,3.13
2022-12-05T06:25:30.470Z,3.63
2022-12-05T06:27:57.585Z,2.97
2022-12-05T06:30:24.698Z,3.73
2022-12-05T06:32:51.781Z,3.60
2022-12-05T06:35:18.936Z,4.10
2022-12-05T06:37:46.437Z,3.03
2022-12-05T06:40:13.942Z,3.80
2022-12-05T06:42:41.021Z,3.57
2022-12-05T06:45:08.295Z,3.60
2022-12-05T06:47:35.392Z,3.37
2022-12-05T06:50:03.165Z,3.40
2022-12-05T06:52:30.230Z,3.27
2022-12-05T06:54:57.353Z,3.50
2022-12-05T06:57:24.420Z,3.70
2022-12-05T06:59:51.574Z,3.40
2022-12-05T07:02:18.893Z,3.40
2022-12-05T07:04:46.064Z,3.47
2022-12-05T07:07:13.547Z,3.50
2022-12-05T07:09:48.229Z,3.47
2022-12-05T07:12:17.233Z,3.47
2022-12-05T07:14:49.049Z,3.70
2022-12-05T07:17:17.857Z,2.80
2022-12-05T07:19:44.929Z,3.03
2022-12-05T07:22:15.656Z,3.40
2022-12-05T07:24:43.427Z,3.23
2022-12-05T07:27:10.573Z,3.67
2022-12-05T07:29:37.657Z,3.37
2022-12-05T07:32:05.104Z,3.53
2022-12-05T07:34:32.257Z,3.50
2022-12-05T07:36:59.418Z,3.47
2022-12-05T07:39:26.671Z,3.33
2022-12-05T07:41:53.740Z,3.53
2022-12-05T07:44:20.818Z,3.83
2022-12-05T07:46:47.929Z,3.23
2022-12-05T07:49:15.931Z,3.53
2022-12-05T07:51:43.029Z,3.30
2022-12-05T07:54:10.121Z,3.27
2022-12-05T07:56:37.203Z,3.33
2022-12-05T07:59:04.273Z,3.50
2022-12-05T08:01:31.436Z,3.20
2022-12-05T08:03:59.418Z,3.20
2022-12-05T08:06:31.005Z,3.43
2022-12-05T08:08:58.517Z,3.60
2022-12-05T08:11:26.939Z,3.60
2022-12-05T08:13:54.372Z,3.70
2022-12-05T08:16:22.832Z,3.60
2022-12-05T08:18:50.038Z,3.30
2022-12-05T08:21:18.466Z,3.10
2022-12-05T08:23:46.392Z,3.53
2022-12-05T08:26:15.274Z,3.47
2022-12-05T08:28:43.238Z,3.30
2022-12-05T08:31:12.220Z,3.00
2022-12-05T08:33:39.712Z,3.70
2022-12-05T08:36:08.686Z,4.20
2022-12-05T08:38:36.181Z,3.53
2022-12-05T08:41:07.317Z,3.40
2022-12-05T08:43:34.577Z,3.37
2022-12-05T08:46:02.201Z,3.00
2022-12-05T08:48:30.288Z,3.60
2022-12-05T08:50:57.497Z,3.83
2022-12-05T08:53:24.725Z,3.20
2022-12-05T08:55:51.839Z,3.63
2022-12-05T08:58:18.937Z,3.10
2022-12-05T09:00:46.013Z,3.40
2022-12-05T09:03:13.394Z,3.40
2022-12-05T09:05:40.490Z,3.70
2022-12-05T09:08:07.676Z,3.97
2022-12-05T09:10:34.944Z,4.03
2022-12-05T09:13:02.052Z,3.70
2022-12-05T09:15:29.193Z,4.10
2022-12-05T09:17:56.364Z,3.70
2022-12-05T09:20:23.549Z,3.63
2022-12-05T09:22:52.631Z,3.90
2022-12-05T09:25:19.720Z,3.40
2022-12-05T09:27:46.850Z,3.37
2022-12-05T09:30:14.275Z,3.80
2022-12-05T09:32:41.359Z,3.37
2022-12-05T09:35:08.639Z,4.10
2022-12-05T09:37:40.079Z,3.20
2022-12-05T09:40:08.107Z,3.40
2022-12-05T09:42:47.706Z,3.03
2022-12-05T09:45:19.670Z,3.30
2022-12-05T09:47:58.290Z,3.30
2022-12-05T09:50:28.139Z,3.40
2022-12-05T09:53:10.190Z,3.43
2022-12-05T09:55:37.326Z,3.90
2022-12-05T09:58:04.620Z,3.80
2022-12-05T10:00:33.083Z,3.80
2022-12-05T10:03:09.371Z,3.67
2022-12-05T10:05:36.436Z,3.60
2022-12-05T10:08:09.320Z,4.10
2022-12-05T10:10:45.845Z,3.97
2022-12-05T10:13:15.843Z,3.43
2022-12-05T10:15:45.938Z,4.20
2022-12-05T10:18:28.766Z,3.67
2022-12-05T10:21:00.130Z,3.60
2022-12-05T10:23:59.610Z,3.70
2022-12-05T10:26:17.739Z,4.00
2022-12-05T10:28:47.553Z,3.07
2022-12-05T10:31:16.733Z,3.50
2022-12-05T10:33:49.592Z,3.73
2022-12-05T10:36:16.746Z,3.77
2022-12-05T10:38:45.164Z,3.67
2022-12-05T10:41:14.279Z,3.90
2022-12-05T10:43:43.058Z,3.80
2022-12-05T10:46:15.558Z,3.87
2022-12-05T10:48:44.347Z,3.93
2022-12-05T10:51:15.921Z,2.90
2022-12-05T10:53:44.466Z,3.60
2022-12-05T10:56:31.094Z,3.77
2022-12-05T10:59:00.538Z,3.57
2022-12-05T11:01:28.276Z,3.63
2022-12-05T11:04:06.921Z,4.03
2022-12-05T11:06:37.899Z,3.63
2022-12-05T11:09:17.616Z,3.43
2022-12-05T11:11:57.614Z,3.57
2022-12-05T11:14:26.804Z,3.83
2022-12-05T11:16:55.716Z,3.50
2022-12-05T11:19:23.481Z,3.60
2022-12-05T11:21:51.030Z,3.23
2022-12-05T11:24:23.954Z,3.63
2022-12-05T11:26:51.511Z,3.80
2022-12-05T11:29:51.109Z,3.53
2022-12-05T11:32:19.986Z,3.70
2022-12-05T11:34:51.335Z,3.80
2022-12-05T11:37:24.787Z,3.23
2022-12-05T11:39:52.562Z,3.80
2022-12-05T11:42:32.059Z,3.60
2022-12-05T11:44:59.584Z,3.80
2022-12-05T11:47:30.009Z,3.80
2022-12-05T11:50:23.656Z,3.60
2022-12-05T11:52:59.601Z,3.40
2022-12-05T11:55:32.467Z,3.63
2022-12-05T11:58:02.963Z,3.57
2022-12-05T12:00:36.337Z,3.70
2022-12-05T12:03:18.857Z,3.47
2022-12-05T12:06:09.398Z,3.60
2022-12-05T12:08:45.514Z,3.30
2022-12-05T12:11:12.917Z,3.30
2022-12-05T12:13:51.956Z,3.30
2022-12-05T12:16:31.164Z,3.50
2022-12-05T12:19:10.444Z,3.90
2022-12-05T12:21:43.813Z,3.27
2022-12-05T12:24:16.892Z,4.33
2022-12-05T12:26:43.967Z,3.77
2022-12-05T12:29:30.155Z,3.70
2022-12-05T12:32:19.712Z,3.93
2022-12-05T12:34:48.577Z,3.90
2022-12-05T12:37:18.751Z,3.70
2022-12-05T12:39:53.526Z,3.67
2022-12-05T12:42:39.501Z,3.70
2022-12-05T12:45:25.614Z,3.30
2022-12-05T12:47:52.970Z,3.80
2022-12-05T12:50:20.563Z,3.63
2022-12-05T12:52:50.412Z,3.60
2022-12-05T12:55:25.483Z,3.50
2022-12-05T12:58:01.337Z,3.50
2022-12-05T13:00:41.497Z,3.47
2022-12-05T13:03:13.332Z,3.57
2022-12-05T13:05:44.906Z,3.40
2022-12-05T13:08:15.167Z,3.33
2022-12-05T13:10:44.551Z,3.40
2022-12-05T13:13:26.892Z,3.20
2022-12-05T13:15:56.455Z,3.40
2022-12-05T13:18:24.653Z,3.20
2022-12-05T13:20:53.382Z,3.43
2022-12-05T13:23:23.257Z,3.70
2022-12-05T13:25:51.093Z,3.47
2022-12-05T13:28:42.311Z,3.23
2022-12-05T13:31:10.395Z,3.53
2022-12-05T13:33:46.693Z,3.63
2022-12-05T13:36:34.454Z,3.23
2022-12-05T13:39:24.310Z,3.30
2022-12-05T13:42:12.109Z,3.33
2022-12-05T13:44:41.273Z,3.10
2022-12-05T13:47:15.486Z,3.30
2022-12-05T13:49:45.599Z,3.90
2022-12-05T13:52:15.688Z,3.50
2022-12-05T13:54:44.714Z,3.93
2022-12-05T13:57:31.747Z,3.50
2022-12-05T14:00:08.191Z,3.70
2022-12-05T14:02:47.473Z,3.60
2022-12-05T14:05:14.645Z,3.50
2022-12-05T14:07:43.581Z,3.53
2022-12-05T14:10:13.150Z,3.50
2022-12-05T14:12:46.228Z,3.53
2022-12-05T14:15:25.838Z,3.47
2022-12-05T14:18:02.338Z,3.53
2022-12-05T14:20:36.101Z,3.67
2022-12-05T14:23:09.188Z,3.47
2022-12-05T14:25:58.177Z,3.53
2022-12-05T14:28:45.664Z,3.53
2022-12-05T14:31:15.787Z,3.72
2022-12-05T14:33:43.062Z,3.60
2022-12-05T14:36:16.769Z,3.67
2022-12-05T14:38:44.978Z,3.67
2022-12-05T14:41:14.883Z,3.40
2022-12-05T14:43:42.855Z,3.33
2022-12-05T14:46:21.591Z,3.50
2022-12-05T14:48:49.278Z,3.40
2022-12-05T14:51:28.414Z,3.80
2022-12-05T14:53:55.715Z,3.40
2022-12-05T14:56:24.775Z,3.67
2022-12-05T14:58:57.895Z,3.57
2022-12-05T15:01:33.956Z,3.43
2022-12-05T15:04:01.338Z,3.50
2022-12-05T15:06:28.508Z,3.63
2022-12-05T15:09:14.596Z,3.33
2022-12-05T15:11:44.346Z,3.70
2022-12-05T15:14:22.606Z,3.60
2022-12-05T15:16:51.853Z,3.37
2022-12-05T15:19:24.557Z,4.10
2022-12-05T15:21:53.378Z,3.90
2022-12-05T15:24:20.783Z,4.20
2022-12-05T15:27:02.194Z,4.90
2022-12-05T15:29:32.858Z,5.50
2022-12-05T15:32:07.587Z,4.90
2022-12-05T15:34:41.888Z,4.97
2022-12-05T15:37:17.906Z,4.70
2022-12-05T15:40:10.018Z,4.20
2022-12-05T15:42:38.375Z,3.77
2022-12-05T15:45:14.647Z,4.33
2022-12-05T15:47:46.054Z,4.07
2022-12-05T15:50:13.961Z,3.87
2022-12-05T15:52:47.091Z,4.07
2022-12-05T15:55:27.594Z,3.87
2022-12-05T15:57:59.006Z,3.67
2022-12-05T16:00:26.582Z,3.60
2022-12-05T16:03:04.348Z,3.33
2022-12-05T16:05:31.429Z,3.60
2022-12-05T16:07:59.449Z,3.20
2022-12-05T16:10:29.727Z,3.67
2022-12-05T16:12:57.238Z,3.53
2022-12-05T16:15:26.910Z,3.30
2022-12-05T16:17:58.189Z,3.53
2022-12-05T16:20:28.619Z,3.47
2022-12-05T16:22:56.911Z,3.40
2022-12-05T16:25:25.900Z,3.70
2022-12-05T16:28:00.542Z,3.83
2022-12-05T16:30:28.755Z,4.20
2022-12-05T16:33:00.736Z,3.73
2022-12-05T16:35:34.095Z,3.60
2022-12-05T16:38:07.029Z,3.80
2022-12-05T16:40:34.240Z,3.77
2022-12-05T16:43:21.437Z,3.80
2022-12-05T16:45:49.493Z,3.50
2022-12-05T16:48:18.324Z,3.90
2022-12-05T16:50:45.595Z,3.40
2022-12-05T16:53:18.772Z,3.27
2022-12-05T16:55:46.145Z,3.57
2022-12-05T16:58:18.307Z,3.27
2022-12-05T17:00:45.471Z,3.57
2022-12-05T17:03:33.455Z,3.57
2022-12-05T17:06:01.087Z,3.80
2022-12-05T17:08:28.263Z,3.50
2022-12-05T17:10:55.438Z,3.90
2022-12-05T17:13:22.650Z,3.57
2022-12-05T17:15:49.860Z,3.53
2022-12-05T17:18:20.483Z,3.40
2022-12-05T17:20:50.317Z,3.47
2022-12-05T17:23:17.890Z,3.70
2022-12-05T17:25:46.805Z,3.30
2022-12-05T17:28:13.939Z,3.73
2022-12-05T17:30:41.124Z,3.50
2022-12-05T17:33:10.536Z,3.80
2022-12-05T17:35:37.920Z,3.60
2022-12-05T17:38:05.305Z,3.73
2022-12-05T17:40:32.949Z,3.70
2022-12-05T17:43:00.160Z,3.60
2022-12-05T17:45:27.243Z,3.57
2022-12-05T17:47:54.397Z,3.57
2022-12-05T17:50:22.691Z,3.80
2022-12-05T17:52:50.470Z,3.63
2022-12-05T17:55:20.553Z,3.30
2022-12-05T17:57:47.741Z,3.80
2022-12-05T18:00:15.874Z,3.60
2022-12-05T18:02:43.958Z,3.40
2022-12-05T18:05:11.985Z,3.30
2022-12-05T18:07:40.314Z,3.20
2022-12-05T18:10:12.660Z,3.13
2022-12-05T18:12:41.037Z,3.30
2022-12-05T18:15:08.468Z,3.03
2022-12-05T18:17:35.669Z,3.30
2022-12-05T18:20:02.847Z,3.10
2022-12-05T18:22:29.953Z,3.23
2022-12-05T18:24:58.411Z,3.50
2022-12-05T18:27:25.847Z,3.10
2022-12-05T18:29:52.938Z,3.40
2022-12-05T18:32:20.354Z,3.13
2022-12-05T18:34:47.582Z,3.10
2022-12-05T18:37:16.496Z,3.30
2022-12-05T18:39:43.666Z,3.43
2022-12-05T18:42:15.072Z,3.63
2022-12-05T18:44:42.662Z,3.10
2022-12-05T18:47:09.829Z,3.27
2022-12-05T18:49:38.447Z,3.60
2022-12-05T18:52:05.589Z,2.93
2022-12-05T18:54:32.661Z,3.00
2022-12-05T18:56:59.737Z,3.03
2022-12-05T18:59:28.571Z,3.37
2022-12-05T19:01:55.836Z,3.10
2022-12-05T19:04:23.209Z,3.07
2022-12-05T19:06:58.602Z,3.23
2022-12-05T19:09:26.992Z,3.10
2022-12-05T19:11:56.871Z,3.23
2022-12-05T19:14:24.845Z,3.30
2022-12-05T19:16:58.320Z,3.17
2022-12-05T19:19:27.849Z,3.33
2022-12-05T19:21:55.893Z,3.10
2022-12-05T19:24:23.119Z,3.00
2022-12-05T19:26:50.277Z,3.50
2022-12-05T19:29:17.738Z,3.50
2022-12-05T19:31:45.359Z,3.20
2022-12-05T19:34:12.953Z,3.57
2022-12-05T19:36:41.644Z,3.70
2022-12-05T19:39:14.260Z,3.60
2022-12-05T19:41:41.346Z,3.83
2022-12-05T19:44:08.618Z,3.60
2022-12-05T19:46:35.779Z,3.70
2022-12-05T19:49:04.710Z,3.47
2022-12-05T19:51:32.181Z,3.67
2022-12-05T19:54:00.365Z,3.83
2022-12-05T19:56:28.005Z,3.70
2022-12-05T19:58:56.619Z,3.93
2022-12-05T20:01:23.741Z,4.17
2022-12-05T20:03:51.893Z,3.90
2022-12-05T20:06:19.420Z,3.70
2022-12-05T20:08:47.430Z,3.47
2022-12-05T20:11:16.246Z,3.83
2022-12-05T20:13:47.689Z,3.63
2022-12-05T20:16:16.126Z,4.53
2022-12-05T20:18:43.458Z,3.20
2022-12-05T20:21:11.933Z,3.67
2022-12-05T20:23:39.420Z,3.73
2022-12-05T20:26:08.017Z,3.60
2022-12-05T20:28:35.423Z,3.10
2022-12-05T20:31:22.846Z,3.70
2022-12-05T20:33:50.815Z,3.30
2022-12-05T20:36:19.425Z,3.90
2022-12-05T20:38:47.010Z,3.50
2022-12-05T20:41:15.750Z,3.53
2022-12-05T20:43:43.582Z,3.30
2022-12-05T20:46:13.306Z,3.70
2022-12-05T20:48:40.650Z,3.90
2022-12-05T20:51:09.209Z,3.50
2022-12-05T20:53:37.037Z,3.67
2022-12-05T20:56:05.070Z,3.50
2022-12-05T20:58:32.230Z,3.67
2022-12-05T21:01:00.143Z,3.40
2022-12-05T21:03:27.459Z,3.80
2022-12-05T21:05:54.707Z,3.60
2022-12-05T21:08:22.167Z,3.83
2022-12-05T21:10:50.028Z,3.60
2022-12-05T21:13:17.203Z,3.23
2022-12-05T21:15:44.351Z,3.40
2022-12-05T21:18:11.611Z,3.80
2022-12-05T21:20:42.056Z,3.63
2022-12-05T21:23:09.560Z,3.50
2022-12-05T21:25:36.951Z,3.70
2022-12-05T21:28:04.075Z,3.70
2022-12-05T21:30:31.241Z,3.30
2022-12-05T21:32:58.384Z,3.23
2022-12-05T21:35:25.472Z,3.60
2022-12-05T21:37:53.092Z,3.43
2022-12-05T21:40:20.243Z,3.60
2022-12-05T21:42:47.377Z,3.20
2022-12-05T21:45:14.489Z,3.40
2022-12-05T21:47:41.584Z,3.20
2022-12-05T21:50:09.024Z,3.37
2022-12-05T21:52:40.531Z,3.47
2022-12-05T21:55:08.169Z,3.10
2022-12-05T21:57:38.818Z,3.40
2022-12-05T22:00:10.218Z,3.60
2022-12-05T22:02:37.384Z,3.47
2022-12-05T22:05:04.661Z,3.37
2022-12-05T22:07:31.848Z,3.73
2022-12-05T22:09:59.204Z,4.10
2022-12-05T22:12:26.516Z,3.70
2022-12-05T22:14:53.670Z,3.20
2022-12-05T22:17:20.783Z,3.63
2022-12-05T22:19:49.300Z,4.20
2022-12-05T22:22:16.450Z,4.10
2022-12-05T22:24:43.524Z,4.10
2022-12-05T22:27:10.674Z,3.77
2022-12-05T22:29:37.751Z,4.30
2022-12-05T22:32:04.886Z,4.10
2022-12-05T22:34:32.016Z,4.47
2022-12-05T22:36:59.124Z,4.40
2022-12-05T22:39:26.235Z,4.63
2022-12-05T22:41:53.326Z,4.37
2022-12-05T22:44:20.448Z,4.90
2022-12-05T22:46:47.568Z,4.20
2022-12-05T22:49:14.657Z,4.77
2022-12-05T22:51:41.829Z,5.20
2022-12-05T22:54:08.993Z,4.50
2022-12-05T22:56:36.119Z,5.17
2022-12-05T22:59:03.317Z,5.00
2022-12-05T23:01:31.906Z,4.73
2022-12-05T23:04:03.499Z,4.47
2022-12-05T23:06:32.389Z,5.20
2022-12-05T23:08:59.713Z,4.87
2022-12-05T23:11:27.665Z,4.87
2022-12-05T23:14:01.445Z,4.83
2022-12-05T23:16:29.896Z,4.57
2022-12-05T23:19:01.901Z,4.70
2022-12-05T23:21:29.715Z,4.47
2022-12-05T23:23:57.822Z,5.00
2022-12-05T23:26:26.159Z,4.63
2022-12-05T23:28:53.439Z,4.93
2022-12-05T23:31:20.818Z,4.63
2022-12-05T23:33:51.317Z,4.50
2022-12-05T23:36:19.337Z,4.53
2022-12-05T23:38:46.472Z,4.23
2022-12-05T23:41:16.448Z,4.37
2022-12-05T23:43:44.217Z,4.13
2022-12-05T23:46:12.186Z,4.17
2022-12-05T23:48:39.715Z,3.90
2022-12-05T23:51:09.614Z,4.20
2022-12-05T23:53:38.358Z,3.83
2022-12-05T23:56:06.839Z,4.00
2022-12-05T23:58:34.118Z,3.83
